sensor_id;sensor_type;location;lat;lon;timestamp;pressure;altitude;pressure_sealevel;temperature;humidity
71857;BME280;63344;46.980;28.882;2023-11-21T00:02:15;100334.59;;;3.42;79.14
71857;BME280;63344;46.980;28.882;2023-11-21T00:04:58;100339.84;;;3.42;79.21
71857;BME280;63344;46.980;28.882;2023-11-21T00:07:38;100326.72;;;3.42;79.44
71857;BME280;63344;46.980;28.882;2023-11-21T00:10:16;100308.47;;;3.33;79.36
71857;BME280;63344;46.980;28.882;2023-11-21T00:13:27;100325.97;;;3.32;79.47
71857;BME280;63344;46.980;28.882;2023-11-21T00:16:26;100334.78;;;3.28;79.91
71857;BME280;63344;46.980;28.882;2023-11-21T00:19:30;100338.38;;;3.21;80.20
71857;BME280;63344;46.980;28.882;2023-11-21T00:22:11;100317.53;;;3.12;80.58
71857;BME280;63344;46.980;28.882;2023-11-21T00:24:56;100315.78;;;3.09;81.07
71857;BME280;63344;46.980;28.882;2023-11-21T00:27:33;100313.28;;;3.02;81.26
71857;BME280;63344;46.980;28.882;2023-11-21T00:30:09;100320.25;;;3.03;81.11
71857;BME280;63344;46.980;28.882;2023-11-21T00:32:54;100322.84;;;3.06;80.92
71857;BME280;63344;46.980;28.882;2023-11-21T00:35:33;100311.53;;;3.02;80.89
71857;BME280;63344;46.980;28.882;2023-11-21T00:38:04;100322.84;;;3.06;80.86
71857;BME280;63344;46.980;28.882;2023-11-21T00:40:39;100320.25;;;3.04;80.78
71857;BME280;63344;46.980;28.882;2023-11-21T00:43:14;100320.22;;;3.06;81.08
71857;BME280;63344;46.980;28.882;2023-11-21T00:45:54;100321.06;;;3.08;81.06
71857;BME280;63344;46.980;28.882;2023-11-21T00:48:32;100323.69;;;3.08;80.79
71857;BME280;63344;46.980;28.882;2023-11-21T00:51:19;100321.88;;;3.11;81.25
71857;BME280;63344;46.980;28.882;2023-11-21T00:54:02;100314.13;;;3.04;81.69
71857;BME280;63344;46.980;28.882;2023-11-21T00:56:44;100330.72;;;3.06;81.21
71857;BME280;63344;46.980;28.882;2023-11-21T00:59:26;100335.06;;;3.07;81.13
71857;BME280;63344;46.980;28.882;2023-11-21T01:02:08;100336.81;;;3.08;81.26
71857;BME280;63344;46.980;28.882;2023-11-21T01:05:23;100335.97;;;3.06;81.42
71857;BME280;63344;46.980;28.882;2023-11-21T01:08:26;100341.06;;;3.18;81.45
71857;BME280;63344;46.980;28.882;2023-11-21T01:11:29;100349.84;;;3.14;81.44
71857;BME280;63344;46.980;28.882;2023-11-21T01:15:04;100348.94;;;3.18;81.12
71857;BME280;63344;46.980;28.882;2023-11-21T01:17:45;100329.72;;;3.14;80.79
71857;BME280;63344;46.980;28.882;2023-11-21T01:20:25;100333.13;;;3.21;81.37
71857;BME280;63344;46.980;28.882;2023-11-21T01:23:08;100331.34;;;3.25;81.00
71857;BME280;63344;46.980;28.882;2023-11-21T01:26:02;100328.69;;;3.26;80.69
71857;BME280;63344;46.980;28.882;2023-11-21T01:28:46;100327.78;;;3.29;80.84
71857;BME280;63344;46.980;28.882;2023-11-21T01:31:33;100323.38;;;3.29;80.58
71857;BME280;63344;46.980;28.882;2023-11-21T01:34:47;100317.25;;;3.30;80.76
71857;BME280;63344;46.980;28.882;2023-11-21T01:37:25;100311.16;;;3.30;80.58
71857;BME280;63344;46.980;28.882;2023-11-21T01:40:11;100308.53;;;3.30;80.51
71857;BME280;63344;46.980;28.882;2023-11-21T01:43:06;100303.22;;;3.33;80.95
71857;BME280;63344;46.980;28.882;2023-11-21T01:46:05;100304.06;;;3.35;80.72
71857;BME280;63344;46.980;28.882;2023-11-21T01:48:57;100298.84;;;3.33;80.80
71857;BME280;63344;46.980;28.882;2023-11-21T01:51:57;100285.94;;;3.18;80.63
71857;BME280;63344;46.980;28.882;2023-11-21T01:54:59;100301.72;;;3.15;81.18
71857;BME280;63344;46.980;28.882;2023-11-21T01:57:52;100305.28;;;3.11;81.34
71857;BME280;63344;46.980;28.882;2023-11-21T02:00:28;100309.66;;;3.10;81.07
71857;BME280;63344;46.980;28.882;2023-11-21T02:03:17;100316.63;;;3.11;81.34
71857;BME280;63344;46.980;28.882;2023-11-21T02:05:59;100313.25;;;3.03;81.76
71857;BME280;63344;46.980;28.882;2023-11-21T02:12:19;100302.91;;;2.91;82.20
71857;BME280;63344;46.980;28.882;2023-11-21T02:14:49;100316.03;;;2.91;81.85
71857;BME280;63344;46.980;28.882;2023-11-21T02:17:50;100326.50;;;2.92;82.29
71857;BME280;63344;46.980;28.882;2023-11-21T02:20:26;100326.50;;;2.94;81.82
71857;BME280;63344;46.980;28.882;2023-11-21T02:23:23;100333.47;;;2.93;82.13
71857;BME280;63344;46.980;28.882;2023-11-21T02:25:59;100341.38;;;2.92;82.32
71857;BME280;63344;46.980;28.882;2023-11-21T02:28:37;100336.13;;;2.92;82.46
71857;BME280;63344;46.980;28.882;2023-11-21T02:31:20;100333.47;;;2.93;82.30
71857;BME280;63344;46.980;28.882;2023-11-21T02:33:52;100337.84;;;2.94;82.14
71857;BME280;63344;46.980;28.882;2023-11-21T02:36:51;100338.69;;;2.98;82.22
71857;BME280;63344;46.980;28.882;2023-11-21T02:39:43;100329.03;;;3.00;82.24
71857;BME280;63344;46.980;28.882;2023-11-21T02:42:26;100336.00;;;3.01;81.89
71857;BME280;63344;46.980;28.882;2023-11-21T02:45:01;100336.84;;;3.03;82.34
71857;BME280;63344;46.980;28.882;2023-11-21T02:47:49;100341.22;;;3.06;81.98
71857;BME280;63344;46.980;28.882;2023-11-21T02:50:30;100345.53;;;3.08;82.13
71857;BME280;63344;46.980;28.882;2023-11-21T02:53:06;100340.31;;;3.08;82.21
71857;BME280;63344;46.980;28.882;2023-11-21T02:55:39;100342.06;;;3.08;81.96
71857;BME280;63344;46.980;28.882;2023-11-21T02:58:13;100340.31;;;3.07;81.87
71857;BME280;63344;46.980;28.882;2023-11-21T03:01:11;100330.75;;;3.03;82.21
71857;BME280;63344;46.980;28.882;2023-11-21T03:04:04;100330.84;;;2.93;82.56
71857;BME280;63344;46.980;28.882;2023-11-21T03:06:38;100331.81;;;2.88;82.53
71857;BME280;63344;46.980;28.882;2023-11-21T03:09:33;100332.66;;;2.90;82.68
71857;BME280;63344;46.980;28.882;2023-11-21T03:12:18;100337.84;;;2.94;82.39
71857;BME280;63344;46.980;28.882;2023-11-21T03:15:07;100343.09;;;2.93;82.74
71857;BME280;63344;46.980;28.882;2023-11-21T03:18:18;100343.09;;;2.93;82.28
71857;BME280;63344;46.980;28.882;2023-11-21T03:21:12;100338.75;;;2.92;82.57
71857;BME280;63344;46.980;28.882;2023-11-21T03:24:00;100330.00;;;2.91;82.74
71857;BME280;63344;46.980;28.882;2023-11-21T03:26:32;100328.22;;;2.93;82.68
71857;BME280;63344;46.980;28.882;2023-11-21T03:29:05;100330.84;;;2.93;82.91
71857;BME280;63344;46.980;28.882;2023-11-21T03:31:42;100337.84;;;2.93;82.47
71857;BME280;63344;46.980;28.882;2023-11-21T03:34:56;100343.97;;;2.93;82.72
71857;BME280;63344;46.980;28.882;2023-11-21T03:37:36;100331.84;;;2.86;83.31
71857;BME280;63344;46.980;28.882;2023-11-21T03:40:35;100346.63;;;2.90;82.91
71857;BME280;63344;46.980;28.882;2023-11-21T03:43:37;100337.94;;;2.87;83.22
71857;BME280;63344;46.980;28.882;2023-11-21T03:46:10;100327.53;;;2.77;83.21
71857;BME280;63344;46.980;28.882;2023-11-21T03:49:16;100340.56;;;2.87;83.25
71857;BME280;63344;46.980;28.882;2023-11-21T03:52:29;100338.88;;;2.81;83.30
71857;BME280;63344;46.980;28.882;2023-11-21T03:55:36;100350.25;;;2.82;83.06
71857;BME280;63344;46.980;28.882;2023-11-21T03:58:22;100350.25;;;2.80;83.32
71857;BME280;63344;46.980;28.882;2023-11-21T04:01:24;100351.97;;;2.83;83.71
71857;BME280;63344;46.980;28.882;2023-11-21T04:08:00;100358.13;;;2.78;84.07
71857;BME280;63344;46.980;28.882;2023-11-21T04:10:57;100346.88;;;2.67;84.39
71857;BME280;63344;46.980;28.882;2023-11-21T04:13:53;100350.41;;;2.65;84.96
71857;BME280;63344;46.980;28.882;2023-11-21T04:16:39;100357.38;;;2.67;84.76
71857;BME280;63344;46.980;28.882;2023-11-21T04:19:24;100357.38;;;2.67;84.95
71857;BME280;63344;46.980;28.882;2023-11-21T04:22:28;100360.06;;;2.64;85.02
71857;BME280;63344;46.980;28.882;2023-11-21T04:25:19;100373.09;;;2.69;84.48
71857;BME280;63344;46.980;28.882;2023-11-21T04:28:31;100357.38;;;2.67;84.45
71857;BME280;63344;46.980;28.882;2023-11-21T04:31:06;100359.97;;;2.72;84.49
71857;BME280;63344;46.980;28.882;2023-11-21T04:34:06;100359.97;;;2.72;84.36
71857;BME280;63344;46.980;28.882;2023-11-21T04:37:34;100359.06;;;2.71;84.92
71857;BME280;63344;46.980;28.882;2023-11-21T04:40:07;100364.31;;;2.74;84.42
71857;BME280;63344;46.980;28.882;2023-11-21T04:43:24;100359.13;;;2.70;84.75
71857;BME280;63344;46.980;28.882;2023-11-21T04:46:21;100372.19;;;2.71;84.49
71857;BME280;63344;46.980;28.882;2023-11-21T04:48:59;100365.31;;;2.61;84.80
71857;BME280;63344;46.980;28.882;2023-11-21T04:51:35;100370.53;;;2.63;84.87
71857;BME280;63344;46.980;28.882;2023-11-21T04:54:08;100372.31;;;2.62;84.65
71857;BME280;63344;46.980;28.882;2023-11-21T04:57:00;100377.63;;;2.53;84.88
71857;BME280;63344;46.980;28.882;2023-11-21T04:59:51;100374.22;;;2.46;85.33
71857;BME280;63344;46.980;28.882;2023-11-21T05:03:03;100375.09;;;2.44;85.17
71857;BME280;63344;46.980;28.882;2023-11-21T06:51:54;100431.09;;;3.88;83.46
71857;BME280;63344;46.980;28.882;2023-11-21T07:20:14;100453.84;;;4.47;81.72
71857;BME280;63344;46.980;28.882;2023-11-21T07:27:56;100452.78;;;4.57;80.94
71857;BME280;63344;46.980;28.882;2023-11-21T07:39:40;100451.31;;;4.41;79.86
71857;BME280;63344;46.980;28.882;2023-11-21T08:40:41;100443.66;;;5.67;77.00
71857;BME280;63344;46.980;28.882;2023-11-21T09:40:14;100399.06;;;7.64;71.82
71857;BME280;63344;46.980;28.882;2023-11-21T09:47:59;100394.56;;;9.48;63.76
71857;BME280;63344;46.980;28.882;2023-11-21T10:40:28;100353.03;;;9.70;62.20
71857;BME280;63344;46.980;28.882;2023-11-21T11:41:04;100386.44;;;9.05;66.57
71857;BME280;63344;46.980;28.882;2023-11-21T12:23:30;100377.59;;;9.30;66.85
71857;BME280;63344;46.980;28.882;2023-11-21T15:42:28;100436.06;;;7.01;75.35
71857;BME280;63344;46.980;28.882;2023-11-21T16:48:08;100489.78;;;7.00;77.70
71857;BME280;63344;46.980;28.882;2023-11-21T16:51:43;100489.06;;;6.93;78.53
71857;BME280;63344;46.980;28.882;2023-11-21T16:55:32;100490.56;;;7.04;77.95
71857;BME280;63344;46.980;28.882;2023-11-21T17:25:08;100514.69;;;6.90;81.87
71857;BME280;63344;46.980;28.882;2023-11-21T17:28:50;100516.53;;;6.86;82.13
71857;BME280;63344;46.980;28.882;2023-11-21T18:46:12;100540.28;;;6.11;90.12
71857;BME280;63344;46.980;28.882;2023-11-21T19:24:59;100560.09;;;5.87;91.53
71857;BME280;63344;46.980;28.882;2023-11-21T20:47:25;100571.34;;;4.99;93.97
71857;BME280;63344;46.980;28.882;2023-11-21T20:50:52;100573.03;;;5.03;93.64
71857;BME280;63344;46.980;28.882;2023-11-21T20:58:20;100559.25;;;4.89;94.96
71857;BME280;63344;46.980;28.882;2023-11-21T21:01:26;100574.06;;;4.94;94.45
71857;BME280;63344;46.980;28.882;2023-11-21T21:08:44;100569.94;;;4.79;95.10
71857;BME280;63344;46.980;28.882;2023-11-21T21:11:36;100575.31;;;4.73;95.30
71857;BME280;63344;46.980;28.882;2023-11-21T21:27:00;100555.25;;;4.65;96.16
71857;BME280;63344;46.980;28.882;2023-11-21T21:33:33;100578.06;;;4.64;96.15
71857;BME280;63344;46.980;28.882;2023-11-21T21:36:47;100576.28;;;4.65;96.64
71857;BME280;63344;46.980;28.882;2023-11-21T21:40:15;100573.63;;;4.69;96.18
71857;BME280;63344;46.980;28.882;2023-11-21T21:46:38;100583.31;;;4.66;97.13
71857;BME280;63344;46.980;28.882;2023-11-21T21:49:40;100575.47;;;4.61;97.27
71857;BME280;63344;46.980;28.882;2023-11-21T21:52:47;100583.34;;;4.63;97.53
71857;BME280;63344;46.980;28.882;2023-11-21T21:55:54;100578.03;;;4.66;97.18
71857;BME280;63344;46.980;28.882;2023-11-21T21:58:47;100576.38;;;4.58;96.50
71857;BME280;63344;46.980;28.882;2023-11-21T22:01:33;100577.31;;;4.54;96.17
71857;BME280;63344;46.980;28.882;2023-11-21T22:04:17;100579.97;;;4.54;96.11
71857;BME280;63344;46.980;28.882;2023-11-21T22:07:09;100567.75;;;4.49;96.41
71857;BME280;63344;46.980;28.882;2023-11-21T22:09:51;100581.63;;;4.62;96.15
71857;BME280;63344;46.980;28.882;2023-11-21T22:12:50;100588.56;;;4.66;96.16
71857;BME280;63344;46.980;28.882;2023-11-21T22:15:23;100585.88;;;4.69;95.95
71857;BME280;63344;46.980;28.882;2023-11-21T22:18:26;100582.41;;;4.65;95.87
71857;BME280;63344;46.980;28.882;2023-11-21T22:21:07;100577.28;;;4.57;95.80
71857;BME280;63344;46.980;28.882;2023-11-21T22:23:37;100584.25;;;4.62;95.75
71857;BME280;63344;46.980;28.882;2023-11-21T22:26:19;100573.84;;;4.54;95.94
71857;BME280;63344;46.980;28.882;2023-11-21T22:29:00;100583.41;;;4.58;96.48
71857;BME280;63344;46.980;28.882;2023-11-21T22:31:49;100590.38;;;4.61;96.52
71857;BME280;63344;46.980;28.882;2023-11-21T22:34:58;100574.63;;;4.59;96.15
71857;BME280;63344;46.980;28.882;2023-11-21T22:38:11;100572.09;;;4.53;96.48
71857;BME280;63344;46.980;28.882;2023-11-21T22:41:26;100570.38;;;4.49;96.93
71857;BME280;63344;46.980;28.882;2023-11-21T22:44:10;100565.22;;;4.44;96.78
71857;BME280;63344;46.980;28.882;2023-11-21T22:46:59;100570.41;;;4.47;96.73
71857;BME280;63344;46.980;28.882;2023-11-21T22:49:38;100573.03;;;4.47;96.78
71857;BME280;63344;46.980;28.882;2023-11-21T22:52:36;100575.72;;;4.46;96.91
71857;BME280;63344;46.980;28.882;2023-11-21T22:55:37;100573.00;;;4.50;96.81
71857;BME280;63344;46.980;28.882;2023-11-21T22:58:24;100580.06;;;4.48;96.59
71857;BME280;63344;46.980;28.882;2023-11-21T23:01:23;100581.81;;;4.48;96.60
71857;BME280;63344;46.980;28.882;2023-11-21T23:04:03;100580.91;;;4.50;96.96
71857;BME280;63344;46.980;28.882;2023-11-21T23:06:50;100577.41;;;4.50;96.76
71857;BME280;63344;46.980;28.882;2023-11-21T23:09:28;100571.25;;;4.51;96.77
71857;BME280;63344;46.980;28.882;2023-11-21T23:12:27;100567.66;;;4.55;96.51
71857;BME280;63344;46.980;28.882;2023-11-21T23:15:12;100582.56;;;4.56;96.92
71857;BME280;63344;46.980;28.882;2023-11-21T23:17:57;100579.94;;;4.56;96.65
71857;BME280;63344;46.980;28.882;2023-11-21T23:20:39;100572.94;;;4.55;96.49
71857;BME280;63344;46.980;28.882;2023-11-21T23:23:17;100576.41;;;4.57;96.94
71857;BME280;63344;46.980;28.882;2023-11-21T23:26:06;100579.03;;;4.57;96.93
71857;BME280;63344;46.980;28.882;2023-11-21T23:28:51;100570.38;;;4.49;97.08
71857;BME280;63344;46.980;28.882;2023-11-21T23:31:29;100583.50;;;4.53;97.08
71857;BME280;63344;46.980;28.882;2023-11-21T23:34:07;100578.25;;;4.52;96.78
71857;BME280;63344;46.980;28.882;2023-11-21T23:36:49;100575.63;;;4.52;97.11
71857;BME280;63344;46.980;28.882;2023-11-21T23:39:28;100581.81;;;4.48;97.24
71857;BME280;63344;46.980;28.882;2023-11-21T23:42:14;100578.28;;;4.47;97.64
71857;BME280;63344;46.980;28.882;2023-11-21T23:44:52;100580.97;;;4.44;97.56
71857;BME280;63344;46.980;28.882;2023-11-21T23:47:31;100583.63;;;4.43;97.84
71857;BME280;63344;46.980;28.882;2023-11-21T23:50:03;100581.84;;;4.45;97.65
71857;BME280;63344;46.980;28.882;2023-11-21T23:52:43;100595.91;;;4.44;97.74
71857;BME280;63344;46.980;28.882;2023-11-21T23:55:49;100588.13;;;4.34;98.33
71857;BME280;63344;46.980;28.882;2023-11-21T23:58:23;100581.19;;;4.30;98.55
